createdAt,value
2023-05-23T00:00:14.190Z,15.85
2023-05-23T00:03:04.581Z,15.27
2023-05-23T00:05:32.697Z,17.15
2023-05-23T00:08:01.844Z,16.23
2023-05-23T00:10:29.871Z,16.52
2023-05-23T00:12:58.230Z,15.55
2023-05-23T00:15:26.471Z,16.73
2023-05-23T00:17:54.663Z,15.55
2023-05-23T00:20:23.022Z,15.48
2023-05-23T00:22:50.810Z,16.00
2023-05-23T00:25:22.056Z,15.60
2023-05-23T00:27:49.804Z,16.30
2023-05-23T00:30:18.239Z,16.23
2023-05-23T00:32:46.034Z,15.50
2023-05-23T00:35:14.100Z,15.23
2023-05-23T00:37:41.783Z,15.95
2023-05-23T00:40:10.283Z,14.73
2023-05-23T00:42:37.992Z,15.25
2023-05-23T00:45:07.197Z,15.50
2023-05-23T00:47:35.236Z,15.80
2023-05-23T00:50:04.840Z,15.75
2023-05-23T00:52:32.960Z,15.23
2023-05-23T00:55:00.967Z,15.45
2023-05-23T00:57:29.308Z,15.95
2023-05-23T00:59:57.398Z,16.35
2023-05-23T01:02:25.614Z,15.27
2023-05-23T01:04:55.633Z,16.20
2023-05-23T01:07:23.607Z,15.50
2023-05-23T01:09:51.698Z,15.52
2023-05-23T01:12:41.135Z,15.82
2023-05-23T01:15:14.820Z,15.63
2023-05-23T01:17:56.745Z,15.55
2023-05-23T01:20:54.118Z,16.30
2023-05-23T01:23:46.127Z,15.73
2023-05-23T01:26:29.269Z,15.32
2023-05-23T01:29:22.674Z,15.48
2023-05-23T01:31:54.955Z,14.52
2023-05-23T01:34:23.183Z,15.13
2023-05-23T01:36:56.202Z,15.27
2023-05-23T01:39:24.248Z,15.00
2023-05-23T01:41:54.191Z,15.40
2023-05-23T01:44:22.511Z,14.93
2023-05-23T01:46:50.770Z,14.88
2023-05-23T01:49:20.636Z,14.65
2023-05-23T01:51:49.019Z,15.30
2023-05-23T01:54:19.864Z,14.23
2023-05-23T01:56:49.966Z,14.18
2023-05-23T01:59:17.873Z,14.15
2023-05-23T02:01:46.341Z,14.80
2023-05-23T02:04:14.766Z,14.60
2023-05-23T02:06:42.719Z,14.00
2023-05-23T02:09:14.149Z,14.70
2023-05-23T02:11:42.188Z,13.73
2023-05-23T02:14:11.300Z,14.30
2023-05-23T02:16:39.419Z,15.27
2023-05-23T02:19:07.279Z,14.40
2023-05-23T02:21:35.891Z,15.00
2023-05-23T02:24:04.523Z,14.60
2023-05-23T02:26:32.763Z,14.50
2023-05-23T02:29:00.948Z,13.98
2023-05-23T02:31:29.277Z,14.40
2023-05-23T02:33:57.079Z,13.90
2023-05-23T02:36:25.208Z,14.35
2023-05-23T02:38:52.927Z,13.95
2023-05-23T02:41:21.523Z,14.23
2023-05-23T02:43:49.418Z,14.50
2023-05-23T02:46:18.200Z,13.95
2023-05-23T02:48:46.027Z,14.15
2023-05-23T02:51:14.016Z,13.43
2023-05-23T02:53:41.930Z,14.25
2023-05-23T02:56:10.076Z,13.70
2023-05-23T02:58:37.758Z,13.43
2023-05-23T03:01:07.827Z,14.23
2023-05-23T03:03:36.596Z,13.68
2023-05-23T03:06:07.530Z,14.15
2023-05-23T03:08:35.476Z,14.27
2023-05-23T03:11:03.508Z,13.80
2023-05-23T03:13:31.432Z,14.05
2023-05-23T03:15:59.494Z,13.07
2023-05-23T03:18:27.516Z,13.55
2023-05-23T03:20:57.069Z,14.25
2023-05-23T03:23:25.240Z,13.10
2023-05-23T03:25:53.390Z,13.25
2023-05-23T03:28:22.001Z,12.88
2023-05-23T03:30:50.143Z,12.98
2023-05-23T03:33:17.962Z,12.60
2023-05-23T03:35:46.088Z,12.82
2023-05-23T03:38:13.989Z,13.18
2023-05-23T03:40:42.160Z,13.15
2023-05-23T03:43:10.074Z,12.50
2023-05-23T03:45:41.896Z,11.18
2023-05-23T03:48:13.958Z,11.98
2023-05-23T03:50:43.485Z,11.88
2023-05-23T03:53:12.726Z,12.10
2023-05-23T03:55:41.075Z,12.13
2023-05-23T03:58:08.980Z,11.07
2023-05-23T04:00:37.239Z,11.00
2023-05-23T04:03:08.915Z,11.43
2023-05-23T04:05:37.525Z,11.05
2023-05-23T04:08:05.432Z,11.10
2023-05-23T04:10:33.662Z,10.43
2023-05-23T04:13:01.537Z,10.05
2023-05-23T04:15:29.656Z,7.72
2023-05-23T04:18:07.572Z,8.15
2023-05-23T04:20:35.876Z,7.70
2023-05-23T04:23:03.799Z,8.23
2023-05-23T04:25:34.467Z,7.68
2023-05-23T04:28:11.007Z,7.78
2023-05-23T04:30:39.170Z,7.20
2023-05-23T04:33:08.028Z,6.95
2023-05-23T04:35:39.215Z,6.88
2023-05-23T04:38:07.577Z,7.28
2023-05-23T04:40:36.039Z,6.63
2023-05-23T04:43:42.795Z,6.50
2023-05-23T04:46:22.198Z,6.30
2023-05-23T04:48:56.510Z,5.50
2023-05-23T04:51:25.163Z,6.55
2023-05-23T04:53:57.169Z,6.20
2023-05-23T04:56:28.424Z,5.90
2023-05-23T04:58:56.457Z,6.30
2023-05-23T05:01:26.246Z,5.80
2023-05-23T05:03:54.844Z,5.93
2023-05-23T05:06:23.989Z,5.20
2023-05-23T05:08:53.139Z,5.53
2023-05-23T05:11:22.494Z,6.05
2023-05-23T05:13:50.240Z,5.07
2023-05-23T05:16:18.374Z,5.22
2023-05-23T05:18:46.485Z,5.50
2023-05-23T05:21:14.761Z,5.25
2023-05-23T05:23:43.673Z,5.72
2023-05-23T05:26:11.832Z,5.55
2023-05-23T05:28:39.670Z,5.43
2023-05-23T05:31:07.922Z,5.70
2023-05-23T05:33:37.743Z,5.28
2023-05-23T05:36:16.728Z,5.18
2023-05-23T05:38:46.286Z,5.30
2023-05-23T05:41:14.659Z,5.60
2023-05-23T05:43:49.744Z,5.40
2023-05-23T05:46:17.812Z,5.00
2023-05-23T05:48:47.355Z,5.20
2023-05-23T05:51:17.633Z,5.53
2023-05-23T05:53:46.448Z,5.15
2023-05-23T05:56:14.885Z,5.68
2023-05-23T05:58:42.788Z,5.07
2023-05-23T06:01:14.702Z,5.22
2023-05-23T06:03:43.754Z,5.07
2023-05-23T06:06:12.036Z,4.97
2023-05-23T06:08:41.633Z,4.93
2023-05-23T06:11:13.010Z,4.85
2023-05-23T06:13:40.763Z,5.18
2023-05-23T06:16:08.955Z,5.57
2023-05-23T06:18:36.798Z,5.10
2023-05-23T06:21:04.835Z,4.57
2023-05-23T06:23:34.577Z,4.50
2023-05-23T06:26:02.819Z,4.22
2023-05-23T06:28:30.564Z,4.50
2023-05-23T06:30:58.808Z,4.20
2023-05-23T06:33:26.582Z,3.97
2023-05-23T06:35:54.627Z,4.35
2023-05-23T06:38:22.680Z,3.88
2023-05-23T06:40:51.159Z,7.07
2023-05-23T06:43:19.820Z,5.50
2023-05-23T06:45:55.093Z,5.28
2023-05-23T06:48:22.919Z,3.67
2023-05-23T06:50:52.694Z,3.88
2023-05-23T06:53:22.175Z,4.03
2023-05-23T06:55:51.599Z,3.53
2023-05-23T06:58:25.229Z,4.00
2023-05-23T07:00:56.925Z,3.58
2023-05-23T07:03:31.703Z,3.45
2023-05-23T07:06:04.936Z,3.97
2023-05-23T07:08:33.036Z,3.53
2023-05-23T07:11:02.351Z,3.30
2023-05-23T07:13:37.955Z,3.25
2023-05-23T07:16:06.368Z,3.83
2023-05-23T07:18:38.820Z,3.08
2023-05-23T07:21:07.696Z,3.50
2023-05-23T07:23:35.484Z,3.00
2023-05-23T07:26:03.994Z,2.92
2023-05-23T07:28:42.045Z,3.03
2023-05-23T07:31:10.194Z,3.10
2023-05-23T07:33:39.208Z,3.08
2023-05-23T07:36:10.358Z,3.10
2023-05-23T07:38:38.200Z,2.95
2023-05-23T07:41:11.388Z,3.00
2023-05-23T07:43:41.351Z,2.70
2023-05-23T07:46:10.141Z,3.20
2023-05-23T07:48:39.053Z,3.03
2023-05-23T07:51:07.201Z,2.63
2023-05-23T07:53:39.995Z,2.92
2023-05-23T07:56:11.498Z,3.10
2023-05-23T07:58:41.847Z,3.15
2023-05-23T08:01:10.144Z,3.08
2023-05-23T08:03:58.238Z,3.47
2023-05-23T08:06:33.763Z,2.90
2023-05-23T08:09:06.841Z,2.53
2023-05-23T08:11:39.142Z,3.25
2023-05-23T08:14:07.984Z,2.90
2023-05-23T08:16:39.389Z,2.85
2023-05-23T08:19:12.615Z,2.83
2023-05-23T08:21:41.388Z,3.20
2023-05-23T08:24:09.403Z,3.17
2023-05-23T08:26:40.120Z,2.80
2023-05-23T08:29:11.264Z,2.75
2023-05-23T08:31:39.404Z,2.40
2023-05-23T08:34:08.383Z,2.50
2023-05-23T08:36:40.430Z,2.85
2023-05-23T08:39:13.842Z,2.83
2023-05-23T08:41:51.929Z,2.90
2023-05-23T08:44:19.839Z,2.70
2023-05-23T08:46:54.081Z,2.10
2023-05-23T08:49:42.164Z,3.00
2023-05-23T08:52:14.690Z,2.60
2023-05-23T08:54:46.274Z,2.78
2023-05-23T08:57:16.854Z,2.53
2023-05-23T08:59:51.898Z,2.65
2023-05-23T09:02:22.518Z,2.83
2023-05-23T09:04:53.859Z,2.80
2023-05-23T09:07:28.835Z,2.50
2023-05-23T09:09:56.700Z,2.65
2023-05-23T09:12:24.835Z,2.78
2023-05-23T09:14:52.967Z,2.72
2023-05-23T09:17:23.971Z,3.05
2023-05-23T09:19:53.183Z,2.80
2023-05-23T09:22:29.834Z,2.83
2023-05-23T09:25:03.143Z,2.80
2023-05-23T09:27:31.417Z,2.70
2023-05-23T09:30:05.576Z,2.50
2023-05-23T09:32:33.810Z,5.13
2023-05-23T09:35:07.074Z,2.55
2023-05-23T09:37:40.965Z,2.60
2023-05-23T09:40:11.074Z,2.90
2023-05-23T09:42:48.578Z,2.70
2023-05-23T09:45:17.253Z,3.20
2023-05-23T09:47:52.723Z,4.93
2023-05-23T09:50:21.757Z,2.80
2023-05-23T09:52:51.336Z,2.88
2023-05-23T09:55:19.649Z,2.75
2023-05-23T09:57:53.347Z,2.67
2023-05-23T10:00:21.683Z,2.63
2023-05-23T10:03:11.549Z,2.90
2023-05-23T10:05:48.772Z,2.85
2023-05-23T10:08:31.217Z,2.40
2023-05-23T10:11:01.685Z,2.75
2023-05-23T10:13:31.949Z,2.95
2023-05-23T10:16:38.879Z,2.40
2023-05-23T10:19:27.328Z,2.70
2023-05-23T10:22:01.506Z,3.15
2023-05-23T10:24:30.052Z,4.50
2023-05-23T10:26:59.412Z,3.17
2023-05-23T10:29:28.604Z,3.03
2023-05-23T10:31:57.802Z,2.70
2023-05-23T10:34:40.575Z,2.75
2023-05-23T10:37:12.540Z,3.13
2023-05-23T10:39:46.582Z,2.38
2023-05-23T10:42:22.361Z,3.13
2023-05-23T10:44:50.361Z,2.65
2023-05-23T10:47:30.309Z,2.60
2023-05-23T10:49:58.344Z,2.85
2023-05-23T10:52:27.116Z,4.28
2023-05-23T10:54:56.454Z,2.75
2023-05-23T10:57:27.929Z,2.47
2023-05-23T10:59:56.437Z,3.30
2023-05-23T11:02:29.344Z,2.92
2023-05-23T11:05:24.470Z,2.90
2023-05-23T11:08:09.557Z,3.47
2023-05-23T11:10:59.455Z,9.45
2023-05-23T11:13:47.767Z,7.65
2023-05-23T11:16:30.458Z,3.10
2023-05-23T11:19:17.150Z,3.42
2023-05-23T11:22:02.200Z,3.13
2023-05-23T11:24:52.765Z,2.97
2023-05-23T11:27:36.079Z,3.03
2023-05-23T11:30:15.864Z,3.20
2023-05-23T11:32:52.555Z,3.10
2023-05-23T11:35:21.390Z,3.10
2023-05-23T11:37:50.105Z,62.55
2023-05-23T11:40:34.045Z,4.85
2023-05-23T11:43:05.353Z,9.07
2023-05-23T11:45:34.424Z,3.15
2023-05-23T11:48:16.921Z,3.08
2023-05-23T11:50:53.257Z,2.90
2023-05-23T11:53:25.504Z,3.30
2023-05-23T11:56:00.648Z,3.15
2023-05-23T11:58:36.699Z,3.33
2023-05-23T12:01:09.756Z,3.58
2023-05-23T12:03:49.310Z,10.60
2023-05-23T12:06:20.810Z,3.47
2023-05-23T12:08:49.013Z,5.82
2023-05-23T12:11:17.836Z,3.90
2023-05-23T12:13:46.900Z,3.42
2023-05-23T12:16:17.916Z,4.00
2023-05-23T12:18:46.141Z,4.05
2023-05-23T12:21:13.806Z,20.85
2023-05-23T12:23:43.075Z,4.78
2023-05-23T12:26:10.946Z,15.32
2023-05-23T12:28:45.009Z,4.05
2023-05-23T12:31:21.433Z,3.70
2023-05-23T12:33:52.981Z,3.65
2023-05-23T12:36:29.598Z,4.07
2023-05-23T12:39:06.050Z,8.07
2023-05-23T12:41:34.478Z,3.90
2023-05-23T12:44:04.060Z,3.88
2023-05-23T12:46:31.816Z,4.18
2023-05-23T12:48:59.956Z,5.13
2023-05-23T12:51:27.684Z,4.15
2023-05-23T12:53:57.287Z,4.43
2023-05-23T12:56:25.108Z,5.10
2023-05-23T12:58:54.078Z,4.00
2023-05-23T13:01:22.361Z,4.38
2023-05-23T13:03:50.604Z,4.38
2023-05-23T13:06:18.367Z,5.25
2023-05-23T13:08:46.809Z,5.22
2023-05-23T13:11:14.617Z,6.10
2023-05-23T13:13:42.764Z,5.57
2023-05-23T13:16:10.600Z,5.68
2023-05-23T13:18:39.003Z,6.10
2023-05-23T13:21:07.339Z,18.90
2023-05-23T13:23:36.728Z,6.45
2023-05-23T13:26:04.970Z,4.40
2023-05-23T13:28:33.979Z,4.75
2023-05-23T13:31:03.475Z,3.95
2023-05-23T13:33:31.877Z,3.97
2023-05-23T13:35:59.653Z,3.88
2023-05-23T13:38:27.910Z,4.13
2023-05-23T13:40:55.792Z,3.92
2023-05-23T13:43:24.334Z,4.30
2023-05-23T13:45:52.750Z,3.67
2023-05-23T13:48:20.747Z,4.13
2023-05-23T13:50:48.655Z,5.32
2023-05-23T13:53:17.125Z,4.78
2023-05-23T13:55:48.124Z,4.50
2023-05-23T13:58:16.166Z,4.93
2023-05-23T14:00:44.239Z,4.80
2023-05-23T14:03:12.825Z,4.40
2023-05-23T14:05:40.619Z,5.53
2023-05-23T14:08:08.902Z,4.20
2023-05-23T14:10:36.590Z,6.40
2023-05-23T14:13:04.753Z,4.55
2023-05-23T14:15:34.501Z,6.20
2023-05-23T14:18:02.783Z,4.30
2023-05-23T14:20:30.716Z,4.35
2023-05-23T14:22:58.769Z,4.22
2023-05-23T14:25:26.611Z,4.25
2023-05-23T14:27:55.728Z,4.60
2023-05-23T14:30:23.662Z,5.10
2023-05-23T14:32:51.770Z,4.97
2023-05-23T14:35:19.623Z,4.30
2023-05-23T14:37:47.659Z,4.90
2023-05-23T14:40:16.391Z,4.80
2023-05-23T14:42:44.469Z,5.70
2023-05-23T14:45:12.424Z,4.38
2023-05-23T14:47:40.459Z,4.93
2023-05-23T14:50:08.872Z,4.20
2023-05-23T14:52:36.856Z,4.22
2023-05-23T14:55:04.881Z,4.32
2023-05-23T14:57:33.388Z,4.38
2023-05-23T15:00:03.284Z,4.18
2023-05-23T15:02:33.848Z,4.13
2023-05-23T15:05:01.912Z,4.72
2023-05-23T15:07:30.060Z,4.22
2023-05-23T15:09:58.190Z,4.57
2023-05-23T15:12:26.477Z,4.20
2023-05-23T15:14:54.623Z,4.15
2023-05-23T15:17:25.059Z,4.72
2023-05-23T15:19:56.963Z,4.78
2023-05-23T15:24:58.366Z,11.48
2023-05-23T15:27:26.415Z,4.63
2023-05-23T15:29:54.217Z,5.32
2023-05-23T15:32:22.576Z,4.90
2023-05-23T15:34:50.491Z,4.57
2023-05-23T15:37:18.832Z,4.70
2023-05-23T15:39:47.188Z,4.53
2023-05-23T15:42:15.758Z,5.18
2023-05-23T15:44:43.551Z,4.70
2023-05-23T15:47:11.774Z,4.57
2023-05-23T15:49:39.485Z,4.65
2023-05-23T15:52:07.564Z,4.82
2023-05-23T15:54:35.410Z,4.90
2023-05-23T15:57:03.496Z,4.55
2023-05-23T15:59:34.273Z,5.07
2023-05-23T16:02:06.171Z,7.18
2023-05-23T16:04:36.124Z,6.47
2023-05-23T16:07:04.960Z,4.32
2023-05-23T16:09:32.788Z,4.90
2023-05-23T16:12:00.804Z,4.85
2023-05-23T16:14:28.556Z,4.65
2023-05-23T16:16:56.529Z,4.90
2023-05-23T16:19:24.502Z,4.65
2023-05-23T16:21:52.492Z,5.15
2023-05-23T16:24:20.168Z,5.07
2023-05-23T16:26:48.172Z,5.30
2023-05-23T16:29:16.022Z,4.47
2023-05-23T16:31:44.135Z,12.32
2023-05-23T16:34:11.846Z,6.75
2023-05-23T16:36:40.392Z,4.60
2023-05-23T16:39:08.194Z,4.60
2023-05-23T16:41:36.150Z,4.88
2023-05-23T16:44:04.077Z,4.88
2023-05-23T16:46:32.612Z,5.03
2023-05-23T16:49:00.455Z,4.97
2023-05-23T16:51:28.464Z,4.88
2023-05-23T16:53:56.385Z,4.63
2023-05-23T16:56:24.443Z,4.38
2023-05-23T16:58:52.305Z,5.25
2023-05-23T17:01:20.501Z,5.28
2023-05-23T17:03:48.581Z,4.97
2023-05-23T17:06:16.773Z,5.20
2023-05-23T17:08:44.561Z,4.63
2023-05-23T17:11:12.570Z,4.72
2023-05-23T17:13:40.682Z,5.20
2023-05-23T17:16:08.928Z,4.97
2023-05-23T17:18:36.709Z,6.18
2023-05-23T17:21:04.756Z,5.57
2023-05-23T17:23:32.589Z,5.63
2023-05-23T17:26:00.639Z,5.90
2023-05-23T17:28:28.392Z,6.25
2023-05-23T17:30:56.692Z,6.65
2023-05-23T17:33:24.542Z,6.35
2023-05-23T17:35:52.563Z,7.10
2023-05-23T17:38:20.389Z,7.25
2023-05-23T17:40:48.738Z,7.85
2023-05-23T17:43:16.603Z,6.97
2023-05-23T17:45:44.670Z,7.00
2023-05-23T17:48:12.593Z,6.97
2023-05-23T17:50:40.730Z,7.13
2023-05-23T17:53:08.582Z,7.65
2023-05-23T17:55:36.559Z,8.30
2023-05-23T17:58:04.369Z,7.80
2023-05-23T18:00:32.539Z,10.43
2023-05-23T18:03:01.731Z,10.45
2023-05-23T18:05:29.781Z,13.20
2023-05-23T18:07:57.699Z,14.35
2023-05-23T18:10:26.263Z,11.52
2023-05-23T18:12:54.019Z,9.55
2023-05-23T18:15:22.456Z,9.00
2023-05-23T18:17:53.019Z,8.02
2023-05-23T18:20:21.637Z,7.10
2023-05-23T18:22:55.986Z,6.35
2023-05-23T18:25:27.635Z,6.68
2023-05-23T18:27:59.106Z,7.57
2023-05-23T18:30:27.988Z,6.65
2023-05-23T18:32:56.616Z,7.82
2023-05-23T18:35:25.845Z,7.55
2023-05-23T18:37:54.618Z,7.38
2023-05-23T18:40:24.262Z,8.30
2023-05-23T18:42:52.306Z,10.35
2023-05-23T18:45:20.531Z,8.73
2023-05-23T18:47:48.647Z,9.50
2023-05-23T18:50:16.877Z,8.07
2023-05-23T18:52:44.687Z,7.68
2023-05-23T18:55:12.955Z,7.57
2023-05-23T18:57:40.906Z,7.40
2023-05-23T19:00:09.659Z,7.95
2023-05-23T19:02:39.611Z,7.63
2023-05-23T19:05:08.269Z,7.32
2023-05-23T19:07:36.088Z,7.47
2023-05-23T19:10:04.399Z,7.00
2023-05-23T19:12:32.131Z,7.85
2023-05-23T19:15:00.161Z,7.18
2023-05-23T19:17:28.068Z,7.88
2023-05-23T19:19:56.133Z,8.30
2023-05-23T19:22:24.399Z,7.90
2023-05-23T19:24:52.409Z,8.30
2023-05-23T19:27:20.141Z,7.72
2023-05-23T19:29:48.193Z,7.70
2023-05-23T19:32:16.616Z,8.05
2023-05-23T19:34:44.811Z,8.98
2023-05-23T19:37:12.714Z,8.93
2023-05-23T19:39:45.719Z,8.70
2023-05-23T19:42:13.753Z,8.35
2023-05-23T19:44:41.850Z,8.70
2023-05-23T19:47:09.664Z,8.40
2023-05-23T19:49:37.818Z,9.38
2023-05-23T19:52:05.705Z,9.00
2023-05-23T19:54:33.885Z,9.73
2023-05-23T19:57:02.230Z,10.63
2023-05-23T19:59:30.691Z,11.27
2023-05-23T20:01:58.575Z,10.00
2023-05-23T20:04:28.513Z,10.23
2023-05-23T20:06:56.281Z,10.88
2023-05-23T20:09:24.639Z,11.32
2023-05-23T20:11:52.808Z,11.90
2023-05-23T20:14:20.887Z,10.35
2023-05-23T20:16:48.727Z,11.00
2023-05-23T20:19:17.128Z,11.05
2023-05-23T20:21:44.992Z,10.60
2023-05-23T20:24:15.074Z,9.82
2023-05-23T20:26:43.184Z,10.05
2023-05-23T20:29:11.286Z,11.32
2023-05-23T20:31:39.162Z,10.45
2023-05-23T20:34:07.465Z,10.43
2023-05-23T20:36:35.279Z,10.52
2023-05-23T20:39:03.251Z,10.27
2023-05-23T20:41:31.079Z,11.05
2023-05-23T20:44:01.615Z,10.43
2023-05-23T20:46:29.620Z,10.50
2023-05-23T20:48:57.752Z,9.80
2023-05-23T20:51:25.812Z,9.82
2023-05-23T20:53:53.734Z,9.75
2023-05-23T20:56:22.134Z,9.82
2023-05-23T20:58:50.142Z,9.70
2023-05-23T21:01:18.165Z,10.32
2023-05-23T21:03:46.203Z,12.80
2023-05-23T21:06:14.381Z,12.65
2023-05-23T21:08:42.521Z,13.45
2023-05-23T21:11:10.253Z,13.38
2023-05-23T21:13:39.889Z,12.60
2023-05-23T21:16:08.771Z,13.27
2023-05-23T21:18:36.796Z,12.50
2023-05-23T21:21:05.333Z,12.40
2023-05-23T21:23:33.384Z,11.95
2023-05-23T21:26:01.204Z,12.20
2023-05-23T21:28:29.315Z,12.48
2023-05-23T21:30:57.615Z,11.50
2023-05-23T21:33:25.727Z,11.75
2023-05-23T21:35:53.395Z,12.18
2023-05-23T21:38:21.394Z,11.45
2023-05-23T21:40:49.132Z,11.73
2023-05-23T21:43:17.197Z,10.20
2023-05-23T21:45:44.905Z,10.85
2023-05-23T21:48:13.310Z,10.70
2023-05-23T21:50:41.144Z,10.50
2023-05-23T21:53:09.643Z,10.32
2023-05-23T21:55:37.382Z,10.27
2023-05-23T21:58:05.727Z,10.85
2023-05-23T22:00:33.778Z,11.13
2023-05-23T22:03:01.860Z,10.63
2023-05-23T22:05:29.934Z,10.70
2023-05-23T22:07:57.848Z,10.88
2023-05-23T22:10:25.473Z,10.90
2023-05-23T22:12:53.401Z,10.07
2023-05-23T22:15:21.132Z,9.88
2023-05-23T22:17:49.043Z,9.90
2023-05-23T22:20:16.831Z,10.13
2023-05-23T22:22:44.811Z,9.65
2023-05-23T22:25:12.489Z,10.27
2023-05-23T22:27:40.563Z,10.23
2023-05-23T22:30:08.642Z,9.75
2023-05-23T22:32:36.611Z,9.60
2023-05-23T22:35:04.323Z,9.85
2023-05-23T22:37:32.106Z,9.95
2023-05-23T22:39:59.774Z,9.52
2023-05-23T22:42:27.611Z,9.13
2023-05-23T22:44:55.206Z,9.18
2023-05-23T22:47:23.775Z,9.75
2023-05-23T22:49:56.472Z,9.57
2023-05-23T22:52:24.905Z,9.15
2023-05-23T22:54:52.604Z,9.15
2023-05-23T22:57:20.496Z,9.00
2023-05-23T22:59:48.109Z,8.70
2023-05-23T23:02:16.068Z,8.38
2023-05-23T23:04:44.361Z,8.48
2023-05-23T23:07:12.242Z,8.95
2023-05-23T23:09:39.925Z,9.23
2023-05-23T23:12:07.822Z,9.02
2023-05-23T23:14:35.474Z,8.93
2023-05-23T23:17:03.605Z,7.78
2023-05-23T23:19:31.302Z,8.43
2023-05-23T23:21:59.209Z,8.70
2023-05-23T23:24:26.835Z,8.35
2023-05-23T23:26:54.728Z,9.10
2023-05-23T23:29:22.458Z,9.82
2023-05-23T23:31:50.600Z,9.02
2023-05-23T23:34:18.459Z,8.80
2023-05-23T23:36:46.421Z,8.45
2023-05-23T23:39:14.093Z,8.63
2023-05-23T23:41:42.051Z,8.20
2023-05-23T23:44:10.006Z,7.55
2023-05-23T23:46:38.163Z,8.30
2023-05-23T23:49:06.096Z,7.90
2023-05-23T23:51:34.053Z,7.75
2023-05-23T23:54:02.004Z,7.55
2023-05-23T23:56:30.031Z,8.68
2023-05-23T23:58:57.684Z,8.20
